Time;durP1;ratioP1;P1;durP2;ratioP2;P2;SDS_P1;SDS_P2;PMS_P1;PMS_P2;Temp;Humidity;BMP_temperature;BMP_pressure;BME280_temperature;BME280_humidity;BME280_pressure;Samples;Min_cycle;Max_cycle;Signal;HPM_P1;HPM_P2
2023/06/27 00:00:27;;;;;;;;;;;;;;;20.11;57.05;100571.53;107305;1257;61284;-85
2023/06/27 00:03:14;;;;;;;;;;;;;;;20.08;57.64;100578.70;107303;1257;124364;-85
2023/06/27 00:05:42;;;;;;;;;;;;;;;20.05;58.16;100581.97;107641;1256;67151;-85
2023/06/27 00:11:16;;;;;;;;;;;;;;;19.96;59.10;100578.02;107357;1256;59334;-86
2023/06/27 00:13:59;;;;;;;;;;;;;;;19.90;59.47;100578.29;107374;1255;61194;-88
2023/06/27 00:16:40;;;;;;;;;;;;;;;19.85;59.99;100575.34;107628;1255;73337;-87
2023/06/27 00:19:13;;;;;;;;;;;;;;;19.81;60.56;100577.55;107570;1256;65589;-87
2023/06/27 00:21:48;;;;;;;;;;;;;;;19.76;60.92;100573.90;107169;1257;124738;-83
2023/06/27 00:24:16;;;;;;;;;;;;;;;19.70;61.27;100566.29;107474;1257;62306;-83
2023/06/27 00:26:45;;;;;;;;;;;;;;;19.67;61.64;100563.50;107334;1256;124214;-83
2023/06/27 00:29:13;;;;;;;;;;;;;;;19.61;61.91;100561.97;107345;1255;74691;-85
2023/06/27 00:31:42;;;;;;;;;;;;;;;19.54;62.29;100558.16;107614;1257;67058;-85
2023/06/27 00:34:21;;;;;;;;;;;;;;;19.49;62.71;100555.04;107405;1257;125041;-84
2023/06/27 00:36:49;;;;;;;;;;;;;;;19.44;63.04;100548.70;107620;1255;62050;-83
2023/06/27 00:39:29;;;;;;;;;;;;;;;19.41;63.42;100550.70;107386;1256;124102;-84
2023/06/27 00:42:04;;;;;;;;;;;;;;;19.37;63.71;100553.44;107447;1255;74592;-84
2023/06/27 00:44:37;;;;;;;;;;;;;;;19.33;63.94;100554.02;107227;1255;124266;-84
2023/06/27 00:47:04;;;;;;;;;;;;;;;19.28;64.32;100559.25;107610;1255;70672;-84
2023/06/27 00:50:08;;;;;;;;;;;;;;;19.27;64.71;100558.92;107422;1257;60880;-85
2023/06/27 00:52:36;;;;;;;;;;;;;;;19.24;65.04;100562.15;107578;1256;61331;-85
2023/06/27 00:55:10;;;;;;;;;;;;;;;19.21;65.16;100562.54;107564;1255;74714;-84
2023/06/27 00:57:50;;;;;;;;;;;;;;;19.17;65.44;100556.38;107589;1256;124786;-84
2023/06/27 01:00:26;;;;;;;;;;;;;;;19.15;65.80;100550.53;107538;1260;72411;-85
2023/06/27 01:03:05;;;;;;;;;;;;;;;19.14;66.04;100544.33;107597;1255;124597;-84
2023/06/27 01:05:38;;;;;;;;;;;;;;;19.13;66.18;100535.62;107600;1256;62047;-84
2023/06/27 01:08:25;;;;;;;;;;;;;;;19.12;66.38;100535.27;107253;1256;125130;-84
2023/06/27 01:11:00;;;;;;;;;;;;;;;19.11;66.65;100523.39;107513;1255;66897;-85
2023/06/27 01:13:30;;;;;;;;;;;;;;;19.11;66.89;100523.20;107620;1256;72718;-85
2023/06/27 01:16:09;;;;;;;;;;;;;;;19.09;66.91;100517.89;107551;1254;124716;-85
2023/06/27 01:18:37;;;;;;;;;;;;;;;19.09;67.18;100513.26;107756;1256;60444;-85
2023/06/27 01:21:09;;;;;;;;;;;;;;;19.11;67.36;100510.21;107316;1256;124949;-85
2023/06/27 01:23:55;;;;;;;;;;;;;;;19.11;67.49;100511.83;107386;1256;65706;-84
2023/06/27 01:26:30;;;;;;;;;;;;;;;19.09;67.76;100511.48;107145;1256;124945;-85
2023/06/27 01:29:03;;;;;;;;;;;;;;;19.07;67.92;100505.83;107401;1256;61238;-85
2023/06/27 01:32:08;;;;;;;;;;;;;;;19.08;68.14;100504.58;107619;1255;60515;-85
2023/06/27 01:38:08;;;;;;;;;;;;;;;19.12;68.53;100491.89;107784;1257;66107;-87
2023/06/27 01:40:38;;;;;;;;;;;;;;;19.16;68.71;100491.83;107509;1256;73697;-86
2023/06/27 01:43:21;;;;;;;;;;;;;;;19.20;68.80;100492.48;107520;1256;59959;-86
2023/06/27 01:46:03;;;;;;;;;;;;;;;19.22;68.92;100488.89;107256;1254;124894;-85
2023/06/27 01:48:43;;;;;;;;;;;;;;;19.24;68.94;100483.88;107471;1255;73510;-86
2023/06/27 01:51:17;;;;;;;;;;;;;;;19.25;68.87;100476.59;107201;1256;124912;-86
2023/06/27 01:57:06;;;;;;;;;;;;;;;19.25;69.14;100470.52;107423;1256;124820;-86
2023/06/27 01:59:36;;;;;;;;;;;;;;;19.26;69.20;100465.88;107663;1255;61233;-86
2023/06/27 02:02:22;;;;;;;;;;;;;;;19.27;69.33;100461.59;107553;1255;73462;-86
2023/06/27 02:05:02;;;;;;;;;;;;;;;19.28;69.44;100464.09;107424;1256;65925;-85
2023/06/27 02:07:40;;;;;;;;;;;;;;;19.27;69.39;100463.91;107342;1255;72714;-85
2023/06/27 02:16:34;;;;;;;;;;;;;;;19.31;69.78;100466.16;107180;1256;124631;-84
2023/06/27 02:19:07;;;;;;;;;;;;;;;19.25;69.43;100464.65;107412;1256;67176;-84
2023/06/27 02:21:41;;;;;;;;;;;;;;;19.13;68.83;100466.44;107149;1255;124530;-84
2023/06/27 02:34:36;;;;;;;;;;;;;;;18.15;69.14;100464.79;107280;1256;124125;-86
2023/06/27 02:37:28;;;;;;;;;;;;;;;18.01;69.10;100464.05;107301;1256;71964;-86
2023/06/27 02:39:58;;;;;;;;;;;;;;;17.84;69.26;100462.27;107305;1256;124582;-84
2023/06/27 02:42:33;;;;;;;;;;;;;;;17.71;69.45;100460.23;107357;1257;61431;-85
2023/06/27 02:45:09;;;;;;;;;;;;;;;17.61;69.62;100463.33;107339;1256;124793;-84
2023/06/27 02:47:58;;;;;;;;;;;;;;;17.54;69.96;100459.49;107290;1255;65468;-85
2023/06/27 02:50:41;;;;;;;;;;;;;;;17.45;70.23;100456.02;107056;1255;125065;-84
2023/06/27 02:53:27;;;;;;;;;;;;;;;17.39;70.40;100453.74;107255;1255;61359;-85
2023/06/27 02:56:08;;;;;;;;;;;;;;;17.33;70.50;100451.66;107151;1256;61169;-84
2023/06/27 02:58:57;;;;;;;;;;;;;;;17.29;70.67;100453.48;107093;1256;124647;-87
2023/06/27 03:01:31;;;;;;;;;;;;;;;17.33;71.04;100465.86;107162;1257;66839;-85
2023/06/27 03:04:16;;;;;;;;;;;;;;;17.39;71.22;100473.96;107211;1256;124957;-85
2023/06/27 03:06:54;;;;;;;;;;;;;;;17.44;71.34;100484.77;107211;1256;61235;-85
2023/06/27 03:09:30;;;;;;;;;;;;;;;17.51;71.38;100488.61;107010;1255;125074;-85
2023/06/27 03:12:06;;;;;;;;;;;;;;;17.53;71.63;100492.14;107342;1256;74656;-84
2023/06/27 03:14:40;;;;;;;;;;;;;;;17.56;71.76;100480.23;107218;1256;124974;-84
2023/06/27 03:17:19;;;;;;;;;;;;;;;17.57;71.75;100462.12;107371;1255;72787;-85
2023/06/27 03:19:46;;;;;;;;;;;;;;;17.59;71.85;100448.79;107205;1259;60847;-85
2023/06/27 03:22:21;;;;;;;;;;;;;;;17.61;71.72;100439.91;107190;1257;124987;-85
2023/06/27 03:24:53;;;;;;;;;;;;;;;17.61;71.72;100445.40;107436;1256;74776;-85
2023/06/27 03:27:23;;;;;;;;;;;;;;;17.63;71.82;100449.47;107151;1255;125141;-85
2023/06/27 03:29:51;;;;;;;;;;;;;;;17.65;71.83;100452.64;107335;1259;72238;-85
2023/06/27 03:32:31;;;;;;;;;;;;;;;17.68;71.95;100455.64;107388;1255;125830;-85
2023/06/27 03:35:29;;;;;;;;;;;;;;;17.72;72.00;100452.05;107343;1256;61044;-87
2023/06/27 03:38:00;;;;;;;;;;;;;;;17.73;71.83;100453.28;107322;1256;74669;-87
2023/06/27 03:40:44;;;;;;;;;;;;;;;17.74;71.84;100453.98;107129;1256;125071;-86
2023/06/27 03:43:17;;;;;;;;;;;;;;;17.76;71.88;100457.52;107184;1256;72700;-85
2023/06/27 03:45:59;;;;;;;;;;;;;;;17.78;72.04;100456.27;106977;1256;125046;-85
2023/06/27 03:48:26;;;;;;;;;;;;;;;17.83;72.06;100454.63;107179;1257;61324;-85
2023/06/27 03:51:01;;;;;;;;;;;;;;;17.87;72.17;100460.83;107041;1257;125709;-85
2023/06/27 03:53:29;;;;;;;;;;;;;;;17.90;72.20;100469.48;107179;1257;65809;-84
2023/06/27 03:56:03;;;;;;;;;;;;;;;17.92;72.24;100472.15;107355;1257;71711;-84
2023/06/27 03:58:34;;;;;;;;;;;;;;;17.93;72.37;100474.60;107435;1257;124641;-83
2023/06/27 04:01:08;;;;;;;;;;;;;;;17.97;72.40;100479.89;107722;1257;59972;-86
2023/06/27 04:03:35;;;;;;;;;;;;;;;18.00;72.54;100489.63;107867;1256;125638;-82
2023/06/27 04:06:12;;;;;;;;;;;;;;;18.04;72.59;100496.52;107553;1257;67310;-87
2023/06/27 04:08:39;;;;;;;;;;;;;;;18.07;72.49;100502.00;107067;1256;124946;-89
2023/06/27 04:11:13;;;;;;;;;;;;;;;18.08;72.43;100513.71;107283;1255;59640;-87
2023/06/27 04:13:46;;;;;;;;;;;;;;;18.08;72.46;100525.44;107294;1255;61333;-88
2023/06/27 04:16:14;;;;;;;;;;;;;;;18.08;72.42;100525.08;107092;1255;124105;-89
2023/06/27 04:18:42;;;;;;;;;;;;;;;18.10;72.35;100528.95;107364;1257;67077;-83
2023/06/27 04:21:10;;;;;;;;;;;;;;;18.10;72.35;100530.92;107578;1256;125477;-82
2023/06/27 04:23:37;;;;;;;;;;;;;;;18.09;72.35;100525.23;107650;1255;231561;-82
2023/06/27 04:26:04;;;;;;;;;;;;;;;18.06;72.08;100523.84;108037;1257;61438;-81
2023/06/27 04:28:32;;;;;;;;;;;;;;;18.03;72.00;100520.33;107443;1260;124777;-86
2023/06/27 04:31:00;;;;;;;;;;;;;;;18.00;71.93;100517.86;107546;1257;66867;-83
2023/06/27 04:33:30;;;;;;;;;;;;;;;17.97;71.95;100513.10;107230;1255;124570;-76
2023/06/27 04:36:03;;;;;;;;;;;;;;;17.96;72.13;100520.75;107549;1257;60975;-76
2023/06/27 04:38:38;;;;;;;;;;;;;;;17.96;72.00;100515.06;107668;1257;125018;-80
2023/06/27 04:41:08;;;;;;;;;;;;;;;17.92;71.93;100507.81;107553;1255;74999;-76
2023/06/27 04:43:36;;;;;;;;;;;;;;;17.89;72.00;100500.21;107415;1257;65871;-76
2023/06/27 04:46:02;;;;;;;;;;;;;;;17.91;72.04;100491.85;107385;1256;124849;-76
2023/06/27 04:48:29;;;;;;;;;;;;;;;17.93;72.13;100489.52;107791;1259;60044;-78
2023/06/27 04:50:58;;;;;;;;;;;;;;;17.97;72.07;100480.79;107446;1257;125051;-82
2023/06/27 04:53:25;;;;;;;;;;;;;;;17.98;72.08;100481.48;107502;1260;73503;-80
2023/06/27 04:55:55;;;;;;;;;;;;;;;18.03;72.01;100482.69;107521;1257;65822;-82
2023/06/27 04:58:22;;;;;;;;;;;;;;;18.07;72.04;100477.32;107791;1257;125363;-78
2023/06/27 05:00:51;;;;;;;;;;;;;;;18.15;71.96;100472.61;107775;1255;59832;-79
2023/06/27 05:03:18;;;;;;;;;;;;;;;18.24;71.90;100462.39;107609;1257;125136;-79
2023/06/27 05:05:45;;;;;;;;;;;;;;;18.33;71.69;100463.55;107879;1257;75081;-79
2023/06/27 05:08:12;;;;;;;;;;;;;;;18.39;71.54;100458.14;107726;1257;67090;-81
2023/06/27 05:10:39;;;;;;;;;;;;;;;18.44;71.26;100457.54;107749;1256;71300;-80
2023/06/27 05:13:06;;;;;;;;;;;;;;;18.46;71.05;100453.08;107583;1256;60423;-80
2023/06/27 05:15:33;;;;;;;;;;;;;;;18.45;70.97;100446.34;107092;1256;124579;-78
2023/06/27 05:18:06;;;;;;;;;;;;;;;18.46;70.78;100446.52;107546;1255;73504;-81
2023/06/27 05:20:34;;;;;;;;;;;;;;;18.46;70.75;100444.73;107432;1260;124734;-80
2023/06/27 05:23:01;;;;;;;;;;;;;;;18.45;70.58;100442.95;107586;1257;71242;-79
2023/06/27 05:25:29;;;;;;;;;;;;;;;18.42;70.47;100445.13;107445;1258;59420;-79
2023/06/27 05:27:59;;;;;;;;;;;;;;;18.38;70.45;100445.19;107469;1262;124996;-79
2023/06/27 05:30:27;;;;;;;;;;;;;;;18.32;70.48;100449.86;107486;1260;73167;-79
2023/06/27 05:32:54;;;;;;;;;;;;;;;18.30;70.52;100451.50;107550;1256;125114;-79
2023/06/27 05:35:22;;;;;;;;;;;;;;;18.25;70.34;100447.46;107992;1256;72570;-78
2023/06/27 05:37:49;;;;;;;;;;;;;;;18.20;70.35;100451.26;107855;1255;59769;-78
2023/06/27 05:40:16;;;;;;;;;;;;;;;18.17;70.42;100451.45;108089;1255;124961;-78
2023/06/27 05:42:43;;;;;;;;;;;;;;;18.17;70.43;100449.85;108020;1257;74683;-78
2023/06/27 05:45:10;;;;;;;;;;;;;;;18.16;70.50;100448.10;107642;1257;125391;-79
2023/06/27 05:47:37;;;;;;;;;;;;;;;18.19;70.56;100449.14;108988;1256;72648;-79
2023/06/27 05:50:05;;;;;;;;;;;;;;;18.20;70.49;100452.49;107910;1256;61257;-80
2023/06/27 05:52:32;;;;;;;;;;;;;;;18.21;70.42;100452.84;108319;1257;124703;-81
2023/06/27 05:55:00;;;;;;;;;;;;;;;18.23;70.44;100451.56;107342;1257;74390;-81
2023/06/27 05:57:27;;;;;;;;;;;;;;;18.27;70.34;100456.67;107383;1259;125278;-81
2023/06/27 05:59:55;;;;;;;;;;;;;;;18.27;70.21;100458.10;107557;1255;71131;-80
2023/06/27 06:02:22;;;;;;;;;;;;;;;18.28;70.20;100455.42;107546;1256;124449;-80
2023/06/27 06:04:49;;;;;;;;;;;;;;;18.30;70.13;100452.20;107805;1256;61222;-81
2023/06/27 06:07:16;;;;;;;;;;;;;;;18.33;70.24;100459.27;107652;1255;74466;-81
2023/06/27 06:09:43;;;;;;;;;;;;;;;18.39;70.24;100461.16;107715;1256;124479;-81
2023/06/27 06:12:10;;;;;;;;;;;;;;;18.47;70.35;100463.20;107715;1256;72403;-79
2023/06/27 06:14:37;;;;;;;;;;;;;;;18.58;70.22;100460.21;107733;1255;124731;-79
2023/06/27 06:17:04;;;;;;;;;;;;;;;18.63;70.01;100462.29;107799;1255;59975;-81
2023/06/27 06:19:31;;;;;;;;;;;;;;;18.68;70.01;100465.95;107614;1256;75132;-81
2023/06/27 06:21:58;;;;;;;;;;;;;;;18.72;69.85;100464.65;108913;1256;124657;-79
2023/06/27 06:24:26;;;;;;;;;;;;;;;18.76;69.71;100461.05;108913;1255;71389;-78
2023/06/27 06:26:53;;;;;;;;;;;;;;;18.77;69.55;100461.92;109009;1254;124644;-78
2023/06/27 06:29:20;;;;;;;;;;;;;;;18.83;69.51;100459.02;108956;1254;59950;-81
2023/06/27 06:31:47;;;;;;;;;;;;;;;18.94;69.47;100463.67;109096;1256;73230;-79
2023/06/27 06:34:14;;;;;;;;;;;;;;;19.07;69.44;100460.83;109024;1257;125536;-79
2023/06/27 06:36:44;;;;;;;;;;;;;;;19.26;69.25;100454.68;109112;1256;72356;-79
2023/06/27 06:39:14;;;;;;;;;;;;;;;19.54;69.11;100451.55;108794;1257;125354;-80
2023/06/27 06:41:41;;;;;;;;;;;;;;;19.90;68.99;100455.77;108021;1259;62228;-79
2023/06/27 06:44:08;;;;;;;;;;;;;;;20.25;68.28;100454.39;107658;1259;73492;-79
2023/06/27 06:46:37;;;;;;;;;;;;;;;20.54;67.78;100455.62;107778;1255;124813;-79
2023/06/27 06:49:04;;;;;;;;;;;;;;;20.85;67.41;100462.27;107684;1257;72583;-79
2023/06/27 06:51:33;;;;;;;;;;;;;;;21.17;66.96;100462.45;108738;1255;124594;-79
2023/06/27 06:54:00;;;;;;;;;;;;;;;21.42;66.25;100459.90;108945;1255;59038;-79
2023/06/27 06:56:30;;;;;;;;;;;;;;;21.61;65.44;100459.64;108082;1257;74769;-83
2023/06/27 06:58:56;;;;;;;;;;;;;;;21.74;65.04;100458.95;107204;1255;66981;-86
2023/06/27 07:01:25;;;;;;;;;;;;;;;21.97;64.70;100459.58;107371;1256;71151;-86
2023/06/27 07:03:58;;;;;;;;;;;;;;;22.13;63.89;100455.76;107146;1256;124257;-86
2023/06/27 07:06:25;;;;;;;;;;;;;;;22.18;63.21;100453.86;107307;1255;60123;-85
2023/06/27 07:08:54;;;;;;;;;;;;;;;22.17;62.80;100454.04;107193;1257;124679;-84
2023/06/27 07:11:31;;;;;;;;;;;;;;;22.12;62.31;100455.63;107296;1256;65480;-84
2023/06/27 07:14:05;;;;;;;;;;;;;;;22.07;62.21;100458.44;107492;1256;72590;-84
2023/06/27 07:16:32;;;;;;;;;;;;;;;22.09;61.97;100459.09;107542;1256;124628;-84
2023/06/27 07:19:02;;;;;;;;;;;;;;;22.05;61.36;100462.95;107613;1257;61672;-84
2023/06/27 07:21:37;;;;;;;;;;;;;;;22.03;61.49;100462.12;107117;1256;124131;-84
2023/06/27 07:24:04;;;;;;;;;;;;;;;22.04;60.99;100464.41;107474;1257;67425;-84
2023/06/27 07:26:31;;;;;;;;;;;;;;;22.10;60.89;100460.33;107285;1256;124510;-83
2023/06/27 07:28:59;;;;;;;;;;;;;;;22.27;60.74;100460.80;107531;1257;61328;-84
2023/06/27 07:31:26;;;;;;;;;;;;;;;22.38;60.33;100464.41;107512;1255;62052;-84
2023/06/27 07:34:00;;;;;;;;;;;;;;;22.36;59.66;100460.17;107178;1256;124383;-84
2023/06/27 07:36:27;;;;;;;;;;;;;;;22.19;59.23;100458.48;107578;1257;65926;-83
2023/06/27 07:38:58;;;;;;;;;;;;;;;22.00;59.28;100457.56;107238;1258;124686;-86
2023/06/27 07:41:44;;;;;;;;;;;;;;;21.92;59.42;100460.63;107331;1256;59961;-86
2023/06/27 07:44:11;;;;;;;;;;;;;;;21.92;59.17;100464.90;107496;1256;59984;-84
2023/06/27 07:46:38;;;;;;;;;;;;;;;21.96;59.16;100466.05;107299;1257;123953;-84
2023/06/27 07:49:18;;;;;;;;;;;;;;;22.03;58.94;100465.68;107447;1257;66191;-82
2023/06/27 07:51:51;;;;;;;;;;;;;;;22.08;58.62;100473.26;107573;1255;124551;-85
2023/06/27 07:54:26;;;;;;;;;;;;;;;22.18;58.40;100476.54;107636;1257;59766;-85
2023/06/27 07:56:56;;;;;;;;;;;;;;;22.25;57.96;100477.59;107201;1262;124393;-84
2023/06/27 07:59:23;;;;;;;;;;;;;;;22.49;57.95;100474.09;107589;1257;72945;-85
2023/06/27 08:01:56;;;;;;;;;;;;;;;22.86;57.71;100464.06;107577;1259;65808;-85
2023/06/27 08:04:23;;;;;;;;;;;;;;;23.25;57.35;100456.98;107518;1257;124095;-86
2023/06/27 08:06:58;;;;;;;;;;;;;;;23.56;56.82;100453.98;107597;1257;60081;-87
2023/06/27 08:09:27;;;;;;;;;;;;;;;23.68;56.02;100455.02;107612;1261;124809;-85
2023/06/27 08:11:54;;;;;;;;;;;;;;;23.62;55.42;100457.92;107527;1255;75188;-85
2023/06/27 08:14:22;;;;;;;;;;;;;;;23.28;54.57;100454.38;107577;1259;66780;-85
2023/06/27 08:16:49;;;;;;;;;;;;;;;23.06;55.21;100457.39;107716;1257;71774;-85
2023/06/27 08:19:18;;;;;;;;;;;;;;;23.20;55.63;100454.09;107867;1259;60881;-84
2023/06/27 08:21:46;;;;;;;;;;;;;;;23.41;54.92;100458.25;107704;1257;124309;-84
2023/06/27 08:24:14;;;;;;;;;;;;;;;23.39;54.24;100457.78;107557;1256;75215;-83
2023/06/27 08:26:45;;;;;;;;;;;;;;;23.28;54.17;100451.85;107606;1257;124265;-85
2023/06/27 08:29:18;;;;;;;;;;;;;;;23.25;54.19;100451.77;107696;1255;72669;-84
2023/06/27 08:31:49;;;;;;;;;;;;;;;23.22;54.19;100447.96;107739;1257;60888;-83
2023/06/27 08:34:20;;;;;;;;;;;;;;;23.25;54.03;100450.90;107928;1256;124617;-83
2023/06/27 08:36:47;;;;;;;;;;;;;;;23.47;53.85;100449.64;108309;1257;73081;-84
2023/06/27 08:39:20;;;;;;;;;;;;;;;23.71;53.29;100457.26;107594;1255;124773;-84
2023/06/27 08:41:48;;;;;;;;;;;;;;;24.02;53.07;100455.13;107690;1257;71386;-84
2023/06/27 08:44:15;;;;;;;;;;;;;;;24.30;52.68;100460.42;107657;1255;59938;-84
2023/06/27 08:46:42;;;;;;;;;;;;;;;24.51;52.35;100468.46;107457;1257;123980;-84
2023/06/27 08:49:10;;;;;;;;;;;;;;;24.54;51.54;100468.50;107700;1258;74813;-85
2023/06/27 08:51:37;;;;;;;;;;;;;;;24.37;51.01;100474.48;107513;1259;124672;-86
2023/06/27 08:54:17;;;;;;;;;;;;;;;24.23;50.62;100473.55;107495;1257;71845;-84
2023/06/27 08:56:48;;;;;;;;;;;;;;;24.16;50.52;100478.85;107501;1257;124745;-83
2023/06/27 08:59:16;;;;;;;;;;;;;;;24.12;50.40;100485.27;107605;1257;59827;-84
2023/06/27 09:01:44;;;;;;;;;;;;;;;24.09;50.68;100483.77;107467;1257;73409;-83
2023/06/27 09:04:11;;;;;;;;;;;;;;;24.15;50.52;100480.67;107902;1257;124680;-85
2023/06/27 09:06:41;;;;;;;;;;;;;;;24.06;50.38;100482.98;107832;1256;71105;-85
2023/06/27 09:09:16;;;;;;;;;;;;;;;24.00;50.29;100485.85;107325;1257;125054;-85
2023/06/27 09:11:43;;;;;;;;;;;;;;;23.89;50.28;100494.11;107561;1256;61133;-85
2023/06/27 09:14:10;;;;;;;;;;;;;;;23.83;50.11;100495.94;107555;1256;73029;-85
2023/06/27 09:16:38;;;;;;;;;;;;;;;23.69;49.61;100509.27;107323;1261;124114;-85
2023/06/27 09:19:05;;;;;;;;;;;;;;;23.68;50.00;100513.25;107587;1256;72690;-85
2023/06/27 09:21:38;;;;;;;;;;;;;;;23.76;49.76;100516.05;107577;1255;124146;-85
2023/06/27 09:24:06;;;;;;;;;;;;;;;23.80;49.88;100521.45;107562;1257;59440;-84
2023/06/27 09:26:33;;;;;;;;;;;;;;;23.96;49.92;100522.92;107463;1257;124435;-81
2023/06/27 09:29:00;;;;;;;;;;;;;;;24.21;49.90;100513.46;107814;1257;67061;-79
2023/06/27 09:31:28;;;;;;;;;;;;;;;24.60;49.80;100509.56;107780;1257;71803;-80
2023/06/27 09:34:05;;;;;;;;;;;;;;;24.84;49.39;100513.86;107805;1257;124256;-80
2023/06/27 09:36:39;;;;;;;;;;;;;;;24.91;48.91;100521.52;107884;1257;61138;-80
2023/06/27 09:39:07;;;;;;;;;;;;;;;24.84;48.24;100528.76;107760;1256;124891;-79
2023/06/27 09:41:53;;;;;;;;;;;;;;;24.57;47.93;100534.45;107741;1256;66964;-79
2023/06/27 09:44:25;;;;;;;;;;;;;;;24.46;48.26;100540.52;107842;1257;72479;-79
2023/06/27 09:46:53;;;;;;;;;;;;;;;24.47;48.32;100539.06;107625;1257;59369;-79
2023/06/27 09:49:21;;;;;;;;;;;;;;;24.29;48.51;100546.54;107823;1261;61078;-79
2023/06/27 09:51:50;;;;;;;;;;;;;;;24.06;48.61;100548.91;107694;1260;125081;-79
2023/06/27 09:54:25;;;;;;;;;;;;;;;23.86;48.96;100548.34;107563;1257;66147;-79
2023/06/27 09:56:53;;;;;;;;;;;;;;;23.71;49.41;100542.00;107448;1255;124861;-79
2023/06/27 09:59:20;;;;;;;;;;;;;;;23.79;49.95;100550.51;107415;1257;61144;-79
2023/06/27 10:01:50;;;;;;;;;;;;;;;23.95;49.98;100552.16;107552;1257;60680;-80
2023/06/27 10:04:19;;;;;;;;;;;;;;;24.03;49.77;100556.55;107364;1257;124508;-80
2023/06/27 10:06:46;;;;;;;;;;;;;;;24.05;50.19;100560.08;107468;1255;65877;-80
2023/06/27 10:09:13;;;;;;;;;;;;;;;24.12;50.16;100561.46;107549;1257;124265;-80
2023/06/27 10:11:40;;;;;;;;;;;;;;;24.18;50.07;100561.58;107926;1257;61259;-79
2023/06/27 10:14:07;;;;;;;;;;;;;;;24.24;49.70;100563.36;108021;1255;59272;-79
2023/06/27 10:16:35;;;;;;;;;;;;;;;24.31;49.47;100564.02;107678;1257;124800;-80
2023/06/27 10:19:02;;;;;;;;;;;;;;;24.36;49.68;100569.96;107745;1257;66252;-80
2023/06/27 10:21:29;;;;;;;;;;;;;;;24.50;49.74;100574.67;107440;1257;124551;-79
2023/06/27 10:23:57;;;;;;;;;;;;;;;24.57;48.99;100569.58;108915;1255;59291;-79
2023/06/27 10:26:25;;;;;;;;;;;;;;;24.51;48.63;100568.17;107761;1258;61094;-80
2023/06/27 10:28:53;;;;;;;;;;;;;;;24.54;48.41;100569.35;107604;1257;74506;-79
2023/06/27 10:31:40;;;;;;;;;;;;;;;24.58;48.72;100577.27;108082;1257;66819;-79
2023/06/27 10:34:07;;;;;;;;;;;;;;;24.75;49.00;100575.77;107873;1257;124024;-79
2023/06/27 10:36:53;;;;;;;;;;;;;;;25.00;48.79;100584.34;107867;1257;62006;-79
2023/06/27 10:39:31;;;;;;;;;;;;;;;25.15;48.50;100581.45;107901;1258;125708;-79
2023/06/27 10:42:00;;;;;;;;;;;;;;;25.22;48.21;100583.86;107940;1256;74640;-80
2023/06/27 10:44:28;;;;;;;;;;;;;;;25.14;48.00;100592.98;108699;1257;124966;-80
2023/06/27 10:47:14;;;;;;;;;;;;;;;24.92;47.18;100595.95;109026;1257;70386;-79
2023/06/27 10:49:48;;;;;;;;;;;;;;;24.53;47.66;100600.39;109085;1256;59270;-80
2023/06/27 10:52:21;;;;;;;;;;;;;;;24.43;48.29;100601.79;109008;1255;124793;-80
2023/06/27 10:55:11;;;;;;;;;;;;;;;24.40;48.07;100600.47;109115;1255;73395;-80
2023/06/27 10:57:41;;;;;;;;;;;;;;;24.63;48.25;100599.17;108853;1255;124649;-80
2023/06/27 11:00:15;;;;;;;;;;;;;;;24.82;48.23;100600.79;109021;1259;72870;-80
2023/06/27 11:02:42;;;;;;;;;;;;;;;25.01;47.89;100608.55;108767;1257;124199;-80
2023/06/27 11:05:16;;;;;;;;;;;;;;;25.02;47.43;100613.00;108897;1255;59198;-80
2023/06/27 11:07:52;;;;;;;;;;;;;;;24.99;47.29;100616.15;109062;1257;73524;-80
2023/06/27 11:10:23;;;;;;;;;;;;;;;25.01;46.98;100622.02;108816;1257;124606;-80
2023/06/27 11:13:09;;;;;;;;;;;;;;;24.88;47.10;100623.92;108900;1257;72749;-79
2023/06/27 11:15:36;;;;;;;;;;;;;;;24.98;47.09;100628.22;108511;1257;124655;-80
2023/06/27 11:18:03;;;;;;;;;;;;;;;24.97;46.73;100630.78;107629;1257;60776;-79
2023/06/27 11:20:31;;;;;;;;;;;;;;;24.97;46.61;100634.36;107460;1255;124430;-80
2023/06/27 11:23:04;;;;;;;;;;;;;;;24.93;46.74;100636.67;107402;1255;64468;-84
2023/06/27 11:25:42;;;;;;;;;;;;;;;24.95;46.59;100639.30;107454;1257;72773;-85
2023/06/27 11:28:12;;;;;;;;;;;;;;;24.96;46.65;100641.95;107355;1257;124076;-85
2023/06/27 11:30:42;;;;;;;;;;;;;;;24.96;46.74;100638.88;107480;1257;60068;-84
2023/06/27 11:33:16;;;;;;;;;;;;;;;25.16;47.09;100643.36;107360;1256;124326;-84
2023/06/27 11:35:44;;;;;;;;;;;;;;;25.20;46.77;100640.35;107132;1256;66078;-84
2023/06/27 11:38:11;;;;;;;;;;;;;;;24.99;46.76;100639.31;107248;1255;72746;-84
2023/06/27 11:40:49;;;;;;;;;;;;;;;24.81;47.05;100633.70;107129;1255;125931;-84
2023/06/27 11:43:18;;;;;;;;;;;;;;;24.80;47.47;100635.86;107817;1257;61088;-86
2023/06/27 11:45:48;;;;;;;;;;;;;;;24.81;47.44;100643.20;107396;1257;124168;-86
2023/06/27 11:48:16;;;;;;;;;;;;;;;24.74;47.40;100641.64;107392;1257;66709;-85
2023/06/27 11:50:53;;;;;;;;;;;;;;;24.71;47.58;100641.23;107165;1257;124727;-85
2023/06/27 11:53:20;;;;;;;;;;;;;;;24.60;47.46;100650.23;107520;1257;62382;-80
2023/06/27 11:55:47;;;;;;;;;;;;;;;24.42;47.55;100647.95;107645;1257;61205;-80
2023/06/27 11:58:15;;;;;;;;;;;;;;;24.26;47.85;100652.23;107450;1262;125058;-85
2023/06/27 12:00:42;;;;;;;;;;;;;;;24.11;48.03;100656.48;107469;1259;67082;-85
2023/06/27 12:03:09;;;;;;;;;;;;;;;23.86;48.38;100653.35;107607;1259;124903;-85
2023/06/27 12:05:42;;;;;;;;;;;;;;;23.68;48.90;100655.67;107651;1258;59733;-84
2023/06/27 12:08:10;;;;;;;;;;;;;;;23.53;49.16;100660.07;107419;1257;61155;-84
2023/06/27 12:10:56;;;;;;;;;;;;;;;23.34;49.60;100657.25;107216;1255;124238;-83
2023/06/27 12:13:37;;;;;;;;;;;;;;;23.15;50.10;100658.86;107856;1257;65800;-84
2023/06/27 12:16:04;;;;;;;;;;;;;;;22.89;50.14;100663.84;107767;1257;124324;-80
2023/06/27 12:18:31;;;;;;;;;;;;;;;22.61;50.55;100663.52;107904;1260;61189;-80
2023/06/27 12:20:59;;;;;;;;;;;;;;;22.41;50.77;100659.93;107894;1257;124792;-80
2023/06/27 12:23:26;;;;;;;;;;;;;;;22.20;51.07;100663.27;107774;1257;73127;-80
2023/06/27 12:25:53;;;;;;;;;;;;;;;21.94;51.15;100664.42;107504;1256;66803;-80
2023/06/27 12:28:21;;;;;;;;;;;;;;;21.58;51.56;100665.23;107721;1257;124138;-80
2023/06/27 12:30:49;;;;;;;;;;;;;;;21.31;52.19;100665.41;107916;1259;60514;-80
2023/06/27 12:33:16;;;;;;;;;;;;;;;21.16;52.59;100673.02;107985;1261;124760;-80
2023/06/27 12:35:43;;;;;;;;;;;;;;;21.07;53.18;100672.67;108021;1257;73066;-80
2023/06/27 12:38:10;;;;;;;;;;;;;;;21.06;53.56;100676.80;107803;1256;66117;-80
2023/06/27 12:40:37;;;;;;;;;;;;;;;21.11;53.89;100677.05;107616;1259;124320;-80
2023/06/27 12:43:05;;;;;;;;;;;;;;;21.23;54.28;100677.52;107598;1259;61271;-80
2023/06/27 12:45:33;;;;;;;;;;;;;;;21.40;54.39;100676.11;107513;1257;124439;-80
2023/06/27 12:48:00;;;;;;;;;;;;;;;21.52;54.34;100675.72;107604;1255;73814;-80
2023/06/27 12:50:27;;;;;;;;;;;;;;;21.56;54.22;100677.41;107329;1255;126385;-80
2023/06/27 12:52:54;;;;;;;;;;;;;;;21.53;53.94;100675.15;107480;1256;71773;-81
2023/06/27 12:55:22;;;;;;;;;;;;;;;21.53;54.33;100676.41;108079;1258;59486;-80
2023/06/27 12:57:49;;;;;;;;;;;;;;;21.62;54.39;100673.54;107932;1255;124654;-80
2023/06/27 13:03:38;;;;;;;;;;;;;;;21.82;54.43;100674.16;107585;1259;124474;-79
2023/06/27 13:06:05;;;;;;;;;;;;;;;21.89;53.94;100675.79;107671;1255;71410;-79
2023/06/27 13:08:32;;;;;;;;;;;;;;;21.74;53.37;100672.92;107553;1257;124771;-80
2023/06/27 13:10:59;;;;;;;;;;;;;;;21.45;53.23;100671.56;107921;1258;60179;-80
2023/06/27 13:13:27;;;;;;;;;;;;;;;21.24;53.55;100672.89;107715;1257;74517;-82